Terminal Aerodrome Forecast
Issued by NWS Cleveland, OH

Home | Current Version | Previous Version | Text Only | Print | Product List | Glossary Off
Versions: 1 2 3 4 5 6 7 8 9 10 11 12 13 14 15 16

242
FTUS41 KCLE 011206 AAA
TAFYNG
TAF AMD
KYNG 011206Z 0112/0212 26012G20KT P6SM BKN020
      TEMPO 0112/0114 2SM -SHSN BKN015
     FM020300 26012KT P6SM BKN012=

USA.gov is the U.S. government's official web portal to all federal, state and local government web resources and services.